sensor_id;sensor_type;location;lat;lon;timestamp;P1;durP1;ratioP1;P2;durP2;ratioP2
15258;SDS011;34462;51.368;12.364;2023-12-29T00:00:26;1.80;;;1.70;;
15258;SDS011;34462;51.368;12.364;2023-12-29T00:02:55;3.90;;;1.63;;
15258;SDS011;34462;51.368;12.364;2023-12-29T00:05:23;3.03;;;1.70;;
15258;SDS011;34462;51.368;12.364;2023-12-29T00:07:53;2.67;;;2.20;;
15258;SDS011;34462;51.368;12.364;2023-12-29T00:10:22;2.17;;;1.83;;
15258;SDS011;34462;51.368;12.364;2023-12-29T00:12:53;2.93;;;2.00;;
15258;SDS011;34462;51.368;12.364;2023-12-29T00:15:21;2.00;;;1.50;;
15258;SDS011;34462;51.368;12.364;2023-12-29T00:17:55;2.93;;;1.70;;
15258;SDS011;34462;51.368;12.364;2023-12-29T00:20:24;1.70;;;1.60;;
15258;SDS011;34462;51.368;12.364;2023-12-29T00:23:06;2.10;;;1.83;;
15258;SDS011;34462;51.368;12.364;2023-12-29T00:25:35;2.53;;;1.80;;
15258;SDS011;34462;51.368;12.364;2023-12-29T00:28:04;2.10;;;1.90;;
15258;SDS011;34462;51.368;12.364;2023-12-29T00:30:37;2.00;;;1.73;;
15258;SDS011;34462;51.368;12.364;2023-12-29T00:33:23;2.60;;;1.97;;
15258;SDS011;34462;51.368;12.364;2023-12-29T00:35:53;1.77;;;1.50;;
15258;SDS011;34462;51.368;12.364;2023-12-29T00:38:24;1.67;;;1.50;;
15258;SDS011;34462;51.368;12.364;2023-12-29T00:40:55;2.00;;;1.70;;
15258;SDS011;34462;51.368;12.364;2023-12-29T00:43:24;1.77;;;1.60;;
15258;SDS011;34462;51.368;12.364;2023-12-29T00:45:54;2.17;;;1.60;;
15258;SDS011;34462;51.368;12.364;2023-12-29T00:48:22;1.83;;;1.60;;
15258;SDS011;34462;51.368;12.364;2023-12-29T00:50:51;2.83;;;1.80;;
15258;SDS011;34462;51.368;12.364;2023-12-29T00:53:20;2.77;;;1.67;;
15258;SDS011;34462;51.368;12.364;2023-12-29T00:55:48;1.70;;;1.60;;
15258;SDS011;34462;51.368;12.364;2023-12-29T00:58:17;2.70;;;1.80;;
15258;SDS011;34462;51.368;12.364;2023-12-29T01:00:45;1.73;;;1.57;;
15258;SDS011;34462;51.368;12.364;2023-12-29T01:03:16;1.73;;;1.63;;
15258;SDS011;34462;51.368;12.364;2023-12-29T01:05:47;1.70;;;1.50;;
15258;SDS011;34462;51.368;12.364;2023-12-29T01:08:16;1.90;;;1.70;;
15258;SDS011;34462;51.368;12.364;2023-12-29T01:10:44;1.93;;;1.73;;
15258;SDS011;34462;51.368;12.364;2023-12-29T01:13:13;2.17;;;2.03;;
15258;SDS011;34462;51.368;12.364;2023-12-29T01:15:41;1.50;;;1.40;;
15258;SDS011;34462;51.368;12.364;2023-12-29T01:18:12;1.50;;;1.40;;
15258;SDS011;34462;51.368;12.364;2023-12-29T01:20:42;2.03;;;1.70;;
15258;SDS011;34462;51.368;12.364;2023-12-29T01:23:11;1.50;;;1.40;;
15258;SDS011;34462;51.368;12.364;2023-12-29T01:25:39;2.43;;;1.70;;
15258;SDS011;34462;51.368;12.364;2023-12-29T01:28:08;2.53;;;1.53;;
15258;SDS011;34462;51.368;12.364;2023-12-29T01:30:37;1.83;;;1.50;;
15258;SDS011;34462;51.368;12.364;2023-12-29T01:33:05;1.87;;;1.40;;
15258;SDS011;34462;51.368;12.364;2023-12-29T01:35:34;2.00;;;1.30;;
15258;SDS011;34462;51.368;12.364;2023-12-29T01:38:04;1.30;;;1.20;;
15258;SDS011;34462;51.368;12.364;2023-12-29T01:40:41;1.40;;;1.20;;
15258;SDS011;34462;51.368;12.364;2023-12-29T01:43:11;1.87;;;1.20;;
15258;SDS011;34462;51.368;12.364;2023-12-29T01:45:39;1.20;;;1.10;;
15258;SDS011;34462;51.368;12.364;2023-12-29T01:48:21;1.57;;;1.33;;
15258;SDS011;34462;51.368;12.364;2023-12-29T01:50:52;2.27;;;1.23;;
15258;SDS011;34462;51.368;12.364;2023-12-29T01:53:22;1.50;;;1.20;;
15258;SDS011;34462;51.368;12.364;2023-12-29T01:56:05;1.67;;;1.50;;
15258;SDS011;34462;51.368;12.364;2023-12-29T01:58:35;1.93;;;1.20;;
15258;SDS011;34462;51.368;12.364;2023-12-29T02:01:04;1.17;;;1.10;;
15258;SDS011;34462;51.368;12.364;2023-12-29T02:03:34;1.40;;;1.30;;
15258;SDS011;34462;51.368;12.364;2023-12-29T02:06:03;1.43;;;1.30;;
15258;SDS011;34462;51.368;12.364;2023-12-29T02:08:35;1.20;;;1.10;;
15258;SDS011;34462;51.368;12.364;2023-12-29T02:11:04;1.30;;;1.20;;
15258;SDS011;34462;51.368;12.364;2023-12-29T02:13:32;1.20;;;1.10;;
15258;SDS011;34462;51.368;12.364;2023-12-29T02:16:03;1.80;;;1.00;;
15258;SDS011;34462;51.368;12.364;2023-12-29T02:18:34;1.97;;;1.10;;
15258;SDS011;34462;51.368;12.364;2023-12-29T02:21:06;2.03;;;1.10;;
15258;SDS011;34462;51.368;12.364;2023-12-29T02:23:36;1.77;;;1.67;;
15258;SDS011;34462;51.368;12.364;2023-12-29T02:26:07;1.20;;;1.10;;
15258;SDS011;34462;51.368;12.364;2023-12-29T02:28:44;1.10;;;1.00;;
15258;SDS011;34462;51.368;12.364;2023-12-29T02:31:17;1.43;;;0.83;;
15258;SDS011;34462;51.368;12.364;2023-12-29T02:33:52;1.03;;;1.00;;
15258;SDS011;34462;51.368;12.364;2023-12-29T02:36:21;1.30;;;1.20;;
15258;SDS011;34462;51.368;12.364;2023-12-29T02:38:51;0.80;;;0.80;;
15258;SDS011;34462;51.368;12.364;2023-12-29T02:41:21;1.27;;;1.17;;
15258;SDS011;34462;51.368;12.364;2023-12-29T02:43:50;1.27;;;1.00;;
15258;SDS011;34462;51.368;12.364;2023-12-29T02:46:19;1.27;;;0.83;;
15258;SDS011;34462;51.368;12.364;2023-12-29T02:48:48;1.40;;;0.97;;
15258;SDS011;34462;51.368;12.364;2023-12-29T02:51:17;1.60;;;1.20;;
15258;SDS011;34462;51.368;12.364;2023-12-29T02:53:45;1.13;;;1.00;;
15258;SDS011;34462;51.368;12.364;2023-12-29T02:56:15;1.10;;;1.00;;
15258;SDS011;34462;51.368;12.364;2023-12-29T02:58:45;0.77;;;0.77;;
15258;SDS011;34462;51.368;12.364;2023-12-29T03:01:14;2.13;;;1.00;;
15258;SDS011;34462;51.368;12.364;2023-12-29T03:03:43;1.20;;;1.10;;
15258;SDS011;34462;51.368;12.364;2023-12-29T03:06:11;1.30;;;1.20;;
15258;SDS011;34462;51.368;12.364;2023-12-29T03:08:40;1.27;;;1.07;;
15258;SDS011;34462;51.368;12.364;2023-12-29T03:11:08;1.10;;;1.00;;
15258;SDS011;34462;51.368;12.364;2023-12-29T03:13:37;1.30;;;1.00;;
15258;SDS011;34462;51.368;12.364;2023-12-29T03:16:07;1.03;;;0.93;;
15258;SDS011;34462;51.368;12.364;2023-12-29T03:18:35;1.20;;;1.00;;
15258;SDS011;34462;51.368;12.364;2023-12-29T03:21:06;1.20;;;1.10;;
15258;SDS011;34462;51.368;12.364;2023-12-29T03:23:35;1.40;;;1.00;;
15258;SDS011;34462;51.368;12.364;2023-12-29T03:26:04;0.97;;;0.97;;
15258;SDS011;34462;51.368;12.364;2023-12-29T03:28:32;0.93;;;0.90;;
15258;SDS011;34462;51.368;12.364;2023-12-29T03:31:01;1.43;;;1.00;;
15258;SDS011;34462;51.368;12.364;2023-12-29T03:33:31;1.10;;;1.00;;
15258;SDS011;34462;51.368;12.364;2023-12-29T03:36:00;1.03;;;1.00;;
15258;SDS011;34462;51.368;12.364;2023-12-29T03:38:28;1.87;;;1.33;;
15258;SDS011;34462;51.368;12.364;2023-12-29T03:40:58;1.07;;;0.87;;
15258;SDS011;34462;51.368;12.364;2023-12-29T03:43:26;1.20;;;1.10;;
15258;SDS011;34462;51.368;12.364;2023-12-29T03:45:55;1.10;;;1.00;;
15258;SDS011;34462;51.368;12.364;2023-12-29T03:48:23;0.80;;;0.80;;
15258;SDS011;34462;51.368;12.364;2023-12-29T03:50:53;1.20;;;0.90;;
15258;SDS011;34462;51.368;12.364;2023-12-29T03:53:22;1.40;;;1.00;;
15258;SDS011;34462;51.368;12.364;2023-12-29T03:55:51;0.93;;;0.90;;
15258;SDS011;34462;51.368;12.364;2023-12-29T03:58:19;0.80;;;0.80;;
15258;SDS011;34462;51.368;12.364;2023-12-29T04:00:48;0.93;;;0.90;;
15258;SDS011;34462;51.368;12.364;2023-12-29T04:03:16;1.10;;;0.90;;
15258;SDS011;34462;51.368;12.364;2023-12-29T04:05:45;1.23;;;0.90;;
15258;SDS011;34462;51.368;12.364;2023-12-29T04:08:15;1.00;;;0.90;;
15258;SDS011;34462;51.368;12.364;2023-12-29T04:10:43;2.10;;;0.93;;
15258;SDS011;34462;51.368;12.364;2023-12-29T04:13:12;1.30;;;0.90;;
15258;SDS011;34462;51.368;12.364;2023-12-29T04:15:41;0.93;;;0.90;;
15258;SDS011;34462;51.368;12.364;2023-12-29T04:18:09;0.83;;;0.83;;
15258;SDS011;34462;51.368;12.364;2023-12-29T04:20:38;1.00;;;0.90;;
15258;SDS011;34462;51.368;12.364;2023-12-29T04:23:07;1.00;;;0.90;;
15258;SDS011;34462;51.368;12.364;2023-12-29T04:25:36;0.90;;;0.90;;
15258;SDS011;34462;51.368;12.364;2023-12-29T04:28:06;1.10;;;1.00;;
15258;SDS011;34462;51.368;12.364;2023-12-29T04:30:35;1.13;;;1.03;;
15258;SDS011;34462;51.368;12.364;2023-12-29T04:33:03;1.37;;;1.20;;
15258;SDS011;34462;51.368;12.364;2023-12-29T04:35:32;1.27;;;0.87;;
15258;SDS011;34462;51.368;12.364;2023-12-29T04:38:01;1.40;;;1.10;;
15258;SDS011;34462;51.368;12.364;2023-12-29T04:40:29;1.20;;;1.10;;
15258;SDS011;34462;51.368;12.364;2023-12-29T04:42:59;1.27;;;1.17;;
15258;SDS011;34462;51.368;12.364;2023-12-29T04:45:28;1.97;;;1.00;;
15258;SDS011;34462;51.368;12.364;2023-12-29T04:47:56;1.67;;;1.10;;
15258;SDS011;34462;51.368;12.364;2023-12-29T04:50:25;2.20;;;1.20;;
15258;SDS011;34462;51.368;12.364;2023-12-29T04:52:54;0.90;;;0.90;;
15258;SDS011;34462;51.368;12.364;2023-12-29T04:55:22;1.53;;;1.07;;
15258;SDS011;34462;51.368;12.364;2023-12-29T04:57:51;0.80;;;0.80;;
15258;SDS011;34462;51.368;12.364;2023-12-29T05:00:21;1.20;;;1.10;;
15258;SDS011;34462;51.368;12.364;2023-12-29T05:02:49;1.10;;;1.00;;
15258;SDS011;34462;51.368;12.364;2023-12-29T05:05:18;1.87;;;0.90;;
15258;SDS011;34462;51.368;12.364;2023-12-29T05:07:47;1.30;;;1.20;;
15258;SDS011;34462;51.368;12.364;2023-12-29T05:10:15;1.10;;;1.00;;
15258;SDS011;34462;51.368;12.364;2023-12-29T05:12:44;1.20;;;1.03;;
15258;SDS011;34462;51.368;12.364;2023-12-29T05:15:12;1.17;;;1.07;;
15258;SDS011;34462;51.368;12.364;2023-12-29T05:17:43;2.03;;;1.20;;
15258;SDS011;34462;51.368;12.364;2023-12-29T05:20:11;2.03;;;1.20;;
15258;SDS011;34462;51.368;12.364;2023-12-29T05:22:40;1.37;;;1.27;;
15258;SDS011;34462;51.368;12.364;2023-12-29T05:25:10;1.10;;;1.00;;
15258;SDS011;34462;51.368;12.364;2023-12-29T05:27:38;1.50;;;1.10;;
15258;SDS011;34462;51.368;12.364;2023-12-29T05:30:07;1.70;;;1.47;;
15258;SDS011;34462;51.368;12.364;2023-12-29T05:32:36;1.60;;;1.50;;
15258;SDS011;34462;51.368;12.364;2023-12-29T05:35:06;1.00;;;1.00;;
15258;SDS011;34462;51.368;12.364;2023-12-29T05:37:36;1.50;;;1.40;;
15258;SDS011;34462;51.368;12.364;2023-12-29T05:40:05;1.20;;;1.10;;
15258;SDS011;34462;51.368;12.364;2023-12-29T05:42:34;1.27;;;1.17;;
15258;SDS011;34462;51.368;12.364;2023-12-29T05:45:03;1.33;;;1.23;;
15258;SDS011;34462;51.368;12.364;2023-12-29T05:47:32;1.33;;;1.23;;
15258;SDS011;34462;51.368;12.364;2023-12-29T05:50:01;1.40;;;1.30;;
15258;SDS011;34462;51.368;12.364;2023-12-29T05:52:31;1.33;;;1.20;;
15258;SDS011;34462;51.368;12.364;2023-12-29T05:55:00;1.30;;;1.20;;
15258;SDS011;34462;51.368;12.364;2023-12-29T05:57:29;1.40;;;1.30;;
15258;SDS011;34462;51.368;12.364;2023-12-29T05:59:58;1.63;;;1.40;;
15258;SDS011;34462;51.368;12.364;2023-12-29T06:02:27;1.30;;;1.20;;
15258;SDS011;34462;51.368;12.364;2023-12-29T06:04:55;1.43;;;1.17;;
15258;SDS011;34462;51.368;12.364;2023-12-29T06:07:24;1.80;;;1.30;;
15258;SDS011;34462;51.368;12.364;2023-12-29T06:09:54;1.50;;;1.30;;
15258;SDS011;34462;51.368;12.364;2023-12-29T06:12:22;1.70;;;1.30;;
15258;SDS011;34462;51.368;12.364;2023-12-29T06:14:51;4.37;;;1.47;;
15258;SDS011;34462;51.368;12.364;2023-12-29T06:17:20;1.50;;;1.40;;
15258;SDS011;34462;51.368;12.364;2023-12-29T06:19:49;1.60;;;1.40;;
15258;SDS011;34462;51.368;12.364;2023-12-29T06:22:17;3.13;;;1.53;;
15258;SDS011;34462;51.368;12.364;2023-12-29T06:24:46;1.33;;;1.23;;
15258;SDS011;34462;51.368;12.364;2023-12-29T06:27:16;2.00;;;1.60;;
15258;SDS011;34462;51.368;12.364;2023-12-29T06:29:45;2.00;;;1.33;;
15258;SDS011;34462;51.368;12.364;2023-12-29T06:32:13;1.50;;;1.37;;
15258;SDS011;34462;51.368;12.364;2023-12-29T06:34:42;1.50;;;1.40;;
15258;SDS011;34462;51.368;12.364;2023-12-29T06:37:10;1.50;;;1.40;;
15258;SDS011;34462;51.368;12.364;2023-12-29T06:39:39;1.67;;;1.50;;
15258;SDS011;34462;51.368;12.364;2023-12-29T06:42:08;1.60;;;1.50;;
15258;SDS011;34462;51.368;12.364;2023-12-29T06:44:38;2.63;;;1.47;;
15258;SDS011;34462;51.368;12.364;2023-12-29T06:47:06;2.50;;;1.60;;
15258;SDS011;34462;51.368;12.364;2023-12-29T06:49:35;1.50;;;1.33;;
15258;SDS011;34462;51.368;12.364;2023-12-29T06:52:04;1.30;;;1.20;;
15258;SDS011;34462;51.368;12.364;2023-12-29T06:54:33;1.43;;;1.33;;
15258;SDS011;34462;51.368;12.364;2023-12-29T06:57:02;2.17;;;1.50;;
15258;SDS011;34462;51.368;12.364;2023-12-29T06:59:31;1.77;;;1.50;;
15258;SDS011;34462;51.368;12.364;2023-12-29T07:02:01;1.47;;;1.37;;
15258;SDS011;34462;51.368;12.364;2023-12-29T07:04:30;1.40;;;1.30;;
15258;SDS011;34462;51.368;12.364;2023-12-29T07:06:59;4.00;;;1.57;;
15258;SDS011;34462;51.368;12.364;2023-12-29T07:09:28;1.87;;;1.13;;
15258;SDS011;34462;51.368;12.364;2023-12-29T07:11:57;1.33;;;1.20;;
15258;SDS011;34462;51.368;12.364;2023-12-29T07:14:26;2.30;;;1.37;;
15258;SDS011;34462;51.368;12.364;2023-12-29T07:16:54;2.90;;;1.60;;
15258;SDS011;34462;51.368;12.364;2023-12-29T07:19:25;2.87;;;1.77;;
15258;SDS011;34462;51.368;12.364;2023-12-29T07:22:00;1.57;;;1.40;;
15258;SDS011;34462;51.368;12.364;2023-12-29T07:24:28;1.93;;;1.30;;
15258;SDS011;34462;51.368;12.364;2023-12-29T07:26:57;1.80;;;1.50;;
15258;SDS011;34462;51.368;12.364;2023-12-29T07:29:26;2.60;;;1.30;;
15258;SDS011;34462;51.368;12.364;2023-12-29T07:31:55;3.30;;;1.33;;
15258;SDS011;34462;51.368;12.364;2023-12-29T07:34:23;1.77;;;1.03;;
15258;SDS011;34462;51.368;12.364;2023-12-29T07:36:54;1.40;;;1.30;;
15258;SDS011;34462;51.368;12.364;2023-12-29T07:39:22;1.70;;;1.40;;
15258;SDS011;34462;51.368;12.364;2023-12-29T07:41:51;2.47;;;1.33;;
15258;SDS011;34462;51.368;12.364;2023-12-29T07:44:20;1.40;;;1.10;;
15258;SDS011;34462;51.368;12.364;2023-12-29T07:46:48;2.63;;;1.17;;
15258;SDS011;34462;51.368;12.364;2023-12-29T07:49:17;1.90;;;1.20;;
15258;SDS011;34462;51.368;12.364;2023-12-29T07:51:47;5.27;;;1.50;;
15258;SDS011;34462;51.368;12.364;2023-12-29T07:54:15;2.93;;;1.50;;
15258;SDS011;34462;51.368;12.364;2023-12-29T07:56:44;1.93;;;1.40;;
15258;SDS011;34462;51.368;12.364;2023-12-29T07:59:12;1.90;;;1.30;;
15258;SDS011;34462;51.368;12.364;2023-12-29T08:01:41;3.87;;;1.70;;
15258;SDS011;34462;51.368;12.364;2023-12-29T08:04:10;1.87;;;1.27;;
15258;SDS011;34462;51.368;12.364;2023-12-29T08:06:41;2.57;;;1.20;;
15258;SDS011;34462;51.368;12.364;2023-12-29T08:09:11;2.33;;;1.40;;
15258;SDS011;34462;51.368;12.364;2023-12-29T08:11:39;4.70;;;1.50;;
15258;SDS011;34462;51.368;12.364;2023-12-29T08:14:09;2.40;;;1.40;;
15258;SDS011;34462;51.368;12.364;2023-12-29T08:16:38;1.53;;;1.23;;
15258;SDS011;34462;51.368;12.364;2023-12-29T08:19:07;1.70;;;1.30;;
15258;SDS011;34462;51.368;12.364;2023-12-29T08:21:37;1.57;;;1.40;;
15258;SDS011;34462;51.368;12.364;2023-12-29T08:24:05;1.40;;;1.23;;
15258;SDS011;34462;51.368;12.364;2023-12-29T08:26:35;2.33;;;1.40;;
15258;SDS011;34462;51.368;12.364;2023-12-29T08:29:11;3.20;;;1.67;;
15258;SDS011;34462;51.368;12.364;2023-12-29T08:31:39;1.83;;;1.30;;
15258;SDS011;34462;51.368;12.364;2023-12-29T08:34:09;2.93;;;1.80;;
15258;SDS011;34462;51.368;12.364;2023-12-29T08:36:38;3.43;;;1.50;;
15258;SDS011;34462;51.368;12.364;2023-12-29T08:39:07;1.87;;;1.43;;
15258;SDS011;34462;51.368;12.364;2023-12-29T08:41:39;1.63;;;1.30;;
15258;SDS011;34462;51.368;12.364;2023-12-29T08:44:08;2.17;;;1.50;;
15258;SDS011;34462;51.368;12.364;2023-12-29T08:46:36;1.77;;;1.30;;
15258;SDS011;34462;51.368;12.364;2023-12-29T08:49:08;3.13;;;1.40;;
15258;SDS011;34462;51.368;12.364;2023-12-29T08:51:37;1.73;;;1.30;;
15258;SDS011;34462;51.368;12.364;2023-12-29T08:54:05;2.60;;;1.53;;
15258;SDS011;34462;51.368;12.364;2023-12-29T08:56:34;3.57;;;1.60;;
15258;SDS011;34462;51.368;12.364;2023-12-29T08:59:04;1.83;;;1.53;;
15258;SDS011;34462;51.368;12.364;2023-12-29T09:01:32;1.87;;;1.50;;
15258;SDS011;34462;51.368;12.364;2023-12-29T09:04:01;1.57;;;1.47;;
15258;SDS011;34462;51.368;12.364;2023-12-29T09:06:30;3.10;;;1.57;;
15258;SDS011;34462;51.368;12.364;2023-12-29T09:08:58;2.87;;;1.80;;
15258;SDS011;34462;51.368;12.364;2023-12-29T09:11:27;2.57;;;1.20;;
15258;SDS011;34462;51.368;12.364;2023-12-29T09:13:56;2.20;;;1.43;;
15258;SDS011;34462;51.368;12.364;2023-12-29T09:16:26;4.10;;;1.50;;
15258;SDS011;34462;51.368;12.364;2023-12-29T09:18:54;1.40;;;1.30;;
15258;SDS011;34462;51.368;12.364;2023-12-29T09:21:23;1.87;;;1.30;;
15258;SDS011;34462;51.368;12.364;2023-12-29T09:23:51;1.77;;;1.20;;
15258;SDS011;34462;51.368;12.364;2023-12-29T09:26:20;2.33;;;1.27;;
15258;SDS011;34462;51.368;12.364;2023-12-29T09:28:49;1.50;;;1.30;;
15258;SDS011;34462;51.368;12.364;2023-12-29T09:31:17;3.50;;;1.50;;
15258;SDS011;34462;51.368;12.364;2023-12-29T09:33:47;1.70;;;1.30;;
15258;SDS011;34462;51.368;12.364;2023-12-29T09:36:16;3.17;;;1.80;;
15258;SDS011;34462;51.368;12.364;2023-12-29T09:38:44;3.90;;;1.60;;
15258;SDS011;34462;51.368;12.364;2023-12-29T09:41:14;1.80;;;1.57;;
15258;SDS011;34462;51.368;12.364;2023-12-29T09:43:44;2.83;;;1.67;;
15258;SDS011;34462;51.368;12.364;2023-12-29T09:46:16;1.77;;;1.23;;
15258;SDS011;34462;51.368;12.364;2023-12-29T09:48:46;1.80;;;1.40;;
15258;SDS011;34462;51.368;12.364;2023-12-29T09:51:19;1.43;;;1.30;;
15258;SDS011;34462;51.368;12.364;2023-12-29T09:53:50;1.90;;;1.40;;
15258;SDS011;34462;51.368;12.364;2023-12-29T09:56:19;1.80;;;1.40;;
15258;SDS011;34462;51.368;12.364;2023-12-29T09:58:48;3.53;;;1.40;;
15258;SDS011;34462;51.368;12.364;2023-12-29T10:01:18;2.47;;;1.63;;
15258;SDS011;34462;51.368;12.364;2023-12-29T10:03:49;2.37;;;1.60;;
15258;SDS011;34462;51.368;12.364;2023-12-29T10:06:19;3.43;;;1.73;;
15258;SDS011;34462;51.368;12.364;2023-12-29T10:08:50;3.00;;;1.43;;
15258;SDS011;34462;51.368;12.364;2023-12-29T10:11:21;3.40;;;1.47;;
15258;SDS011;34462;51.368;12.364;2023-12-29T10:13:53;1.50;;;1.40;;
15258;SDS011;34462;51.368;12.364;2023-12-29T10:16:28;1.27;;;1.17;;
15258;SDS011;34462;51.368;12.364;2023-12-29T10:19:05;3.73;;;1.53;;
15258;SDS011;34462;51.368;12.364;2023-12-29T10:21:55;4.40;;;1.40;;
15258;SDS011;34462;51.368;12.364;2023-12-29T10:24:30;3.60;;;1.87;;
15258;SDS011;34462;51.368;12.364;2023-12-29T10:26:59;2.57;;;1.30;;
15258;SDS011;34462;51.368;12.364;2023-12-29T10:29:28;2.77;;;1.20;;
15258;SDS011;34462;51.368;12.364;2023-12-29T10:31:58;3.50;;;1.33;;
15258;SDS011;34462;51.368;12.364;2023-12-29T10:34:29;2.47;;;1.50;;
15258;SDS011;34462;51.368;12.364;2023-12-29T10:36:58;2.37;;;1.20;;
15258;SDS011;34462;51.368;12.364;2023-12-29T10:39:29;1.43;;;1.00;;
15258;SDS011;34462;51.368;12.364;2023-12-29T10:42:02;1.63;;;1.23;;
15258;SDS011;34462;51.368;12.364;2023-12-29T10:44:33;1.57;;;1.10;;
15258;SDS011;34462;51.368;12.364;2023-12-29T10:47:08;2.23;;;1.27;;
15258;SDS011;34462;51.368;12.364;2023-12-29T10:49:39;3.50;;;1.23;;
15258;SDS011;34462;51.368;12.364;2023-12-29T10:52:11;2.10;;;1.10;;
15258;SDS011;34462;51.368;12.364;2023-12-29T10:54:41;1.70;;;1.00;;
15258;SDS011;34462;51.368;12.364;2023-12-29T10:57:11;3.03;;;1.40;;
15258;SDS011;34462;51.368;12.364;2023-12-29T10:59:40;1.43;;;1.00;;
15258;SDS011;34462;51.368;12.364;2023-12-29T11:02:11;1.10;;;1.00;;
15258;SDS011;34462;51.368;12.364;2023-12-29T11:04:43;2.83;;;1.30;;
15258;SDS011;34462;51.368;12.364;2023-12-29T11:07:12;1.87;;;1.17;;
15258;SDS011;34462;51.368;12.364;2023-12-29T11:09:40;1.10;;;0.90;;
15258;SDS011;34462;51.368;12.364;2023-12-29T11:12:10;1.47;;;1.00;;
15258;SDS011;34462;51.368;12.364;2023-12-29T11:14:40;1.10;;;0.90;;
15258;SDS011;34462;51.368;12.364;2023-12-29T11:17:12;1.70;;;1.07;;
15258;SDS011;34462;51.368;12.364;2023-12-29T11:19:44;1.37;;;1.13;;
15258;SDS011;34462;51.368;12.364;2023-12-29T11:22:15;1.65;;;1.10;;
15258;SDS011;34462;51.368;12.364;2023-12-29T11:24:45;2.17;;;1.20;;
15258;SDS011;34462;51.368;12.364;2023-12-29T11:27:15;2.30;;;1.10;;
15258;SDS011;34462;51.368;12.364;2023-12-29T11:29:44;2.13;;;1.40;;
15258;SDS011;34462;51.368;12.364;2023-12-29T11:32:16;1.40;;;1.10;;
15258;SDS011;34462;51.368;12.364;2023-12-29T11:34:52;2.13;;;1.30;;
15258;SDS011;34462;51.368;12.364;2023-12-29T11:37:28;1.83;;;1.10;;
15258;SDS011;34462;51.368;12.364;2023-12-29T11:40:04;1.47;;;1.20;;
15258;SDS011;34462;51.368;12.364;2023-12-29T11:42:47;1.63;;;1.10;;
15258;SDS011;34462;51.368;12.364;2023-12-29T11:45:23;2.70;;;1.03;;
15258;SDS011;34462;51.368;12.364;2023-12-29T11:47:53;2.10;;;1.90;;
15258;SDS011;34462;51.368;12.364;2023-12-29T11:50:31;2.47;;;2.00;;
15258;SDS011;34462;51.368;12.364;2023-12-29T11:53:00;5.50;;;3.07;;
15258;SDS011;34462;51.368;12.364;2023-12-29T11:55:30;4.60;;;3.50;;
15258;SDS011;34462;51.368;12.364;2023-12-29T11:58:02;3.07;;;1.80;;
15258;SDS011;34462;51.368;12.364;2023-12-29T12:00:41;2.33;;;1.70;;
15258;SDS011;34462;51.368;12.364;2023-12-29T12:03:14;1.43;;;1.20;;
15258;SDS011;34462;51.368;12.364;2023-12-29T12:05:54;2.00;;;1.37;;
15258;SDS011;34462;51.368;12.364;2023-12-29T12:08:32;2.07;;;1.50;;
15258;SDS011;34462;51.368;12.364;2023-12-29T12:14:08;1.90;;;1.40;;
15258;SDS011;34462;51.368;12.364;2023-12-29T12:16:52;2.57;;;1.40;;
15258;SDS011;34462;51.368;12.364;2023-12-29T12:19:21;2.43;;;1.30;;
15258;SDS011;34462;51.368;12.364;2023-12-29T12:21:54;1.93;;;1.10;;
15258;SDS011;34462;51.368;12.364;2023-12-29T12:24:23;1.30;;;1.20;;
15258;SDS011;34462;51.368;12.364;2023-12-29T12:26:52;2.03;;;1.27;;
15258;SDS011;34462;51.368;12.364;2023-12-29T12:29:21;1.57;;;1.40;;
15258;SDS011;34462;51.368;12.364;2023-12-29T12:31:52;3.27;;;1.67;;
15258;SDS011;34462;51.368;12.364;2023-12-29T12:34:21;2.03;;;1.33;;
15258;SDS011;34462;51.368;12.364;2023-12-29T12:36:51;2.80;;;1.30;;
15258;SDS011;34462;51.368;12.364;2023-12-29T12:39:24;2.37;;;1.60;;
15258;SDS011;34462;51.368;12.364;2023-12-29T12:42:05;2.43;;;1.70;;
15258;SDS011;34462;51.368;12.364;2023-12-29T12:44:35;3.73;;;1.60;;
15258;SDS011;34462;51.368;12.364;2023-12-29T12:47:09;1.73;;;1.40;;
15258;SDS011;34462;51.368;12.364;2023-12-29T12:49:45;2.03;;;1.50;;
15258;SDS011;34462;51.368;12.364;2023-12-29T12:52:14;2.20;;;1.33;;
15258;SDS011;34462;51.368;12.364;2023-12-29T12:54:44;2.70;;;1.60;;
15258;SDS011;34462;51.368;12.364;2023-12-29T12:57:17;2.30;;;1.60;;
15258;SDS011;34462;51.368;12.364;2023-12-29T12:59:47;3.50;;;1.90;;
15258;SDS011;34462;51.368;12.364;2023-12-29T13:02:18;2.50;;;1.50;;
15258;SDS011;34462;51.368;12.364;2023-12-29T13:04:47;2.20;;;1.70;;
15258;SDS011;34462;51.368;12.364;2023-12-29T13:07:17;1.97;;;1.47;;
15258;SDS011;34462;51.368;12.364;2023-12-29T13:09:48;1.50;;;1.40;;
15258;SDS011;34462;51.368;12.364;2023-12-29T13:12:18;4.30;;;1.50;;
15258;SDS011;34462;51.368;12.364;2023-12-29T13:14:47;3.23;;;1.57;;
15258;SDS011;34462;51.368;12.364;2023-12-29T13:17:15;1.47;;;1.20;;
15258;SDS011;34462;51.368;12.364;2023-12-29T13:19:47;2.20;;;1.40;;
15258;SDS011;34462;51.368;12.364;2023-12-29T13:22:25;1.67;;;1.20;;
15258;SDS011;34462;51.368;12.364;2023-12-29T13:24:56;1.33;;;1.20;;
15258;SDS011;34462;51.368;12.364;2023-12-29T13:27:25;2.30;;;1.37;;
15258;SDS011;34462;51.368;12.364;2023-12-29T13:29:55;1.33;;;1.20;;
15258;SDS011;34462;51.368;12.364;2023-12-29T13:32:25;2.57;;;1.40;;
15258;SDS011;34462;51.368;12.364;2023-12-29T13:35:01;2.50;;;1.53;;
15258;SDS011;34462;51.368;12.364;2023-12-29T13:37:33;1.53;;;1.40;;
15258;SDS011;34462;51.368;12.364;2023-12-29T13:40:10;1.73;;;1.20;;
15258;SDS011;34462;51.368;12.364;2023-12-29T13:42:44;1.97;;;1.60;;
15258;SDS011;34462;51.368;12.364;2023-12-29T13:45:16;3.20;;;1.40;;
15258;SDS011;34462;51.368;12.364;2023-12-29T13:47:46;2.23;;;1.40;;
15258;SDS011;34462;51.368;12.364;2023-12-29T13:50:15;4.33;;;1.30;;
15258;SDS011;34462;51.368;12.364;2023-12-29T13:52:44;3.17;;;1.50;;
15258;SDS011;34462;51.368;12.364;2023-12-29T13:55:14;1.77;;;1.37;;
15258;SDS011;34462;51.368;12.364;2023-12-29T13:57:49;2.37;;;2.00;;
15258;SDS011;34462;51.368;12.364;2023-12-29T14:00:18;2.80;;;1.57;;
15258;SDS011;34462;51.368;12.364;2023-12-29T14:02:56;1.77;;;1.30;;
15258;SDS011;34462;51.368;12.364;2023-12-29T14:05:31;1.40;;;1.30;;
15258;SDS011;34462;51.368;12.364;2023-12-29T14:08:05;1.93;;;1.30;;
15258;SDS011;34462;51.368;12.364;2023-12-29T14:10:46;2.43;;;1.10;;
15258;SDS011;34462;51.368;12.364;2023-12-29T14:13:15;1.80;;;1.40;;
15258;SDS011;34462;51.368;12.364;2023-12-29T14:15:47;2.07;;;1.40;;
15258;SDS011;34462;51.368;12.364;2023-12-29T14:18:24;2.53;;;1.47;;
15258;SDS011;34462;51.368;12.364;2023-12-29T14:21:01;1.93;;;1.27;;
15258;SDS011;34462;51.368;12.364;2023-12-29T14:23:30;1.80;;;1.50;;
15258;SDS011;34462;51.368;12.364;2023-12-29T14:26:03;1.30;;;1.20;;
15258;SDS011;34462;51.368;12.364;2023-12-29T14:28:32;2.33;;;1.20;;
15258;SDS011;34462;51.368;12.364;2023-12-29T14:31:00;1.37;;;0.90;;
15258;SDS011;34462;51.368;12.364;2023-12-29T14:33:29;1.57;;;1.10;;
15258;SDS011;34462;51.368;12.364;2023-12-29T14:35:58;2.00;;;1.13;;
15258;SDS011;34462;51.368;12.364;2023-12-29T14:38:27;1.53;;;1.00;;
15258;SDS011;34462;51.368;12.364;2023-12-29T14:40:55;1.60;;;1.20;;
15258;SDS011;34462;51.368;12.364;2023-12-29T14:43:26;1.10;;;1.00;;
15258;SDS011;34462;51.368;12.364;2023-12-29T14:45:54;1.83;;;1.20;;
15258;SDS011;34462;51.368;12.364;2023-12-29T14:48:23;1.50;;;1.10;;
15258;SDS011;34462;51.368;12.364;2023-12-29T14:50:52;1.57;;;1.13;;
15258;SDS011;34462;51.368;12.364;2023-12-29T14:53:21;2.30;;;1.10;;